Terminal Aerodrome Forecast
Issued by NWS

Home | Current Version | Previous Version | Text Only | Print | Product List | Glossary On
Versions: 1 2 3 4 5 6 7 8 9 10 11 12 13
000
FTUS45 KRIW 060533
TAFRKS
TAF
KRKS 060533Z 0606/0706 05007KT P6SM VCSH BKN015
     FM061800 07010KT P6SM VCTS BKN060CB
     FM070400 08008KT P6SM VCSH FEW015 BKN050=

USA.gov is the U.S. government's official web portal to all federal, state and local government web resources and services.